CKY8 weather

Arkayla Springs Airport
Cochrane, Alberta, Canada

Public forecast

Using degrees Celsius for public forecast. Weather courtesy of forecast.io.

Closest aviation weather report (METAR) to Arkayla Springs Airport

Closest report is Calgary / Springbank Airport, 16.3 nm (30.1 km) ESE. Retrieved 2020/02/27 08:00 UTC (16 minutes ago):

CYBW 270800Z AUTO 28012KT 9SM CLR M00/M10 A3006 RMK SLP227

Closest aviation forecast (TAF) to Arkayla Springs Airport

Forecast is more than 6 hours old.

Closest forecast is Calgary / Springbank Airport, 16.3 nm (30.1 km) ESE. Retrieved 2020-02-27 00:00 UTC (8 hours ago):

TAF CYBW 262338Z 2700/2705 27012KT P6SM FEW080 TEMPO 2700/2705 VRB03KT RMK FCST BASED ON AUTO OBS NXT FCST WILL BE ISSUED AT 271245Z